Nearby METAR Reports

 

KLOT - Romeoville/Chi, Illinois, USA
Distance from station: N 3mi, 5km
Updated: Mon, 12-Apr-2021 11:15pm CDT
Clear
Clear
 Wind from WSW
Wind: WSW 9 mph , 15 km/h
Temperature: 46°F , 8°C
Wind Chill: 41°F , 5°C
Dew Point: 37°F , 3°C
Humidity: 71%
Barometer: 29.99 inHg , 1015.6 hPa
Clouds: Clear
Visibility: 10 miles , 16 km
2021/04/13 04:15 KLOT 130415Z AUTO 25008KT 10SM CLR 08/03 A2999 RMK AO2 T00800030
KJOT - Joliet, Illinois, USA
Distance from station: WSW 5mi, 7km
Updated: Mon, 12-Apr-2021 11:15pm CDT
Clear
Clear
 Wind from calm
Wind: Calm
Temperature: 45°F , 7°C
Dew Point: 37°F , 3°C
Humidity: 76%
Barometer: 30.00 inHg , 1015.9 hPa
Clouds: Clear
Visibility: 10 miles , 16 km
2021/04/13 04:15 KJOT 130415Z AUTO 00000KT 10SM CLR 07/03 A3000 RMK AO2 T00740029
 
KC09 - Morris-Washburn, Illinois, USA
Distance from station: WSW 18mi, 29km
Updated: Mon, 12-Apr-2021 11:15pm CDT
Clear
Clear
 Wind from WSW
Wind: WSW 6 mph , 9 km/h
Temperature: 46°F , 8°C
Wind Chill: 43°F , 6°C
Dew Point: 36°F , 2°C
Humidity: 66%
Barometer: 29.99 inHg , 1015.6 hPa
Clouds: Clear
Visibility: 10 miles , 16 km
2021/04/13 04:15 KC09 130415Z AUTO 24005KT 10SM CLR 08/02 A2999 RMK AO2 T00760016
KARR - Chicago/Aurora, Illinois, USA
Distance from station: NW 24mi, 39km
Updated: Mon, 12-Apr-2021 10:52pm CDT
Clear
Clear
 Wind from SW
Wind: SW 8 mph , 13 km/h
Temperature: 46°F , 8°C
Wind Chill: 42°F , 6°C
Dew Point: 36°F , 2°C
Humidity: 66%
Barometer: 29.97 inHg , 1014.9 hPa
Clouds: Clear
Visibility: 10 miles , 16 km
2021/04/13 03:52 KARR 130352Z AUTO 22007KT 10SM CLR 08/02 A2997 RMK AO2 SLP152 T00780017
 
KMDW - Chicago, Illinois, USA
Distance from station: NE 25mi, 39km
Updated: Mon, 12-Apr-2021 10:53pm CDT
Clear
Clear
 Wind from WSW
Wind: WSW 7 mph , 11 km/h
Temperature: 52°F , 11°C
Dew Point: 32°F , 0°C
Humidity: 47%
Barometer: 29.98 inHg , 1015.2 hPa
Clouds: Clear
Visibility: 10 miles , 16 km
2021/04/13 03:53 KMDW 130353Z 24006KT 10SM CLR 11/00 A2998 RMK AO2 SLP151 T01060000
KDPA - Chicago/Dupage, Illinois, USA
Distance from station: NNW 26mi, 42km
Updated: Mon, 12-Apr-2021 10:52pm CDT
Clear
Clear
 Wind from WSW
Wind: WSW 9 mph , 15 km/h
Temperature: 46°F , 8°C
Wind Chill: 41°F , 5°C
Dew Point: 36°F , 2°C
Humidity: 66%
Barometer: 29.97 inHg , 1014.9 hPa
Clouds: Clear
Visibility: 10 miles , 16 km
2021/04/13 03:52 KDPA 130352Z 24008KT 10SM CLR 08/02 A2997 RMK AO2 SLP149 T00830017
 
KIGQ - Chicago/Lansing, Illinois, USA
Distance from station: E 30mi, 48km
Updated: Mon, 12-Apr-2021 11:15pm CDT
Clear
Clear
 Wind from calm
Wind: Calm
Temperature: 46°F , 8°C
Dew Point: 34°F , 1°C
Humidity: 62%
Barometer: 30.00 inHg , 1015.9 hPa
Clouds: Clear
Visibility: 10 miles , 16 km
2021/04/13 04:15 KIGQ 130415Z AUTO 00000KT 10SM CLR 08/01 A3000 RMK AO2 T00760007
KORD - Chicago O'hare, Illinois, USA
Distance from station: NNE 31mi, 50km
Updated: Mon, 12-Apr-2021 10:51pm CDT
Clear
Clear
 Wind from SW
Wind: SW 6 mph , 9 km/h
Temperature: 50°F , 10°C
Wind Chill: 48°F , 9°C
Dew Point: 36°F , 2°C
Humidity: 58%
Barometer: 29.96 inHg , 1014.6 hPa
Clouds: Clear
Visibility: 10 miles , 16 km
2021/04/13 03:51 KORD 130351Z 23005KT 10SM CLR 10/02 A2996 RMK AO2 SLP147 T01000017
 
KGYY - Gary Regional, Indiana, USA
Distance from station: E 36mi, 58km
Updated: Mon, 12-Apr-2021 11:15pm CDT
Clear
Clear
 Wind from WSW
Wind: WSW 6 mph , 9 km/h
Temperature: 52°F , 11°C
Dew Point: 34°F , 1°C
Humidity: 50%
Barometer: 30.00 inHg , 1015.9 hPa
Clouds: Clear
Visibility: 10 miles , 16 km
2021/04/13 04:15 KGYY 130415Z AUTO 25005KT 10SM CLR 11/01 A3000 RMK AO2 T01080006
KIKK - Kankakee, Illinois, USA
Distance from station: SSE 36mi, 58km
Updated: Mon, 12-Apr-2021 11:15pm CDT
Clear
Clear
 Wind from W
Wind: W 7 mph , 11 km/h
Temperature: 45°F , 7°C
Wind Chill: 41°F , 5°C
Dew Point: 39°F , 4°C
Humidity: 81%
Barometer: 30.02 inHg , 1016.6 hPa
Clouds: Clear
Visibility: 10 miles , 16 km
2021/04/13 04:15 KIKK 130415Z AUTO 27006KT 10SM CLR 07/04 A3002 RMK AO2 T00710037 TSNO
 
KDKB - De Kalb, Illinois, USA
Distance from station: NW 40mi, 65km
Updated: Mon, 12-Apr-2021 11:15pm CDT
Clear
Clear
 Wind from SW
Wind: SW 7 mph , 11 km/h
Temperature: 46°F , 8°C
Wind Chill: 42°F , 6°C
Dew Point: 34°F , 1°C
Humidity: 62%
Barometer: 29.98 inHg , 1015.2 hPa
Clouds: Clear
Visibility: 10 miles , 16 km
2021/04/13 04:15 KDKB 130415Z AUTO 23006KT 10SM CLR 08/01 A2998 RMK AO2 T00770012
KPWK - Palwaukee, Illinois, USA
Distance from station: NNE 41mi, 65km
Updated: Mon, 12-Apr-2021 10:52pm CDT
Clear
Clear
 Wind from SSW
Wind: SSW 5 mph , 7 km/h
Temperature: 50°F , 10°C
Wind Chill: 48°F , 9°C
Dew Point: 36°F , 2°C
Humidity: 58%
Barometer: 29.98 inHg , 1015.2 hPa
Clouds: Clear
Visibility: 10 miles , 16 km
2021/04/13 03:52 KPWK 130352Z AUTO 21004KT 10SM CLR 10/02 A2998 RMK AO2 SLP151 T01000017